Time,TemperatureF,DewpointF,PressureIn,WindDirection,WindDirectionDegrees,WindSpeedMPH,WindSpeedGustMPH,Humidity,HourlyPrecipIn,Conditions,Clouds,dailyrainin,SoftwareType,DateUTC
2013-03-16 00:00:00,46.2,33.5,29.91,SW,225,0.0,2.2,61,0.00,,BKN110,0.00,VWS V14.01,2013-03-16 04:00:00,
2013-03-16 00:05:00,46.6,33.5,29.91,SW,225,0.0,0.0,60,0.00,,BKN110,0.00,VWS V14.01,2013-03-16 04:05:00,
2013-03-16 00:10:00,46.4,33.3,29.91,SW,225,2.2,2.2,60,0.00,,BKN110,0.00,VWS V14.01,2013-03-16 04:10:00,
2013-03-16 00:15:00,46.6,33.0,29.91,SW,225,3.1,3.1,59,0.00,,BKN110,0.00,VWS V14.01,2013-03-16 04:15:00,
2013-03-16 00:20:00,46.2,33.1,29.91,WNW,292,0.0,0.0,60,0.00,,SCT120,0.00,VWS V14.01,2013-03-16 04:20:00,
2013-03-16 00:25:00,46.2,33.1,29.91,WNW,292,0.0,0.0,60,0.00,,SCT120,0.00,VWS V14.01,2013-03-16 04:25:00,
2013-03-16 00:30:00,46.0,33.0,29.91,WNW,292,0.0,0.0,60,0.00,,SCT120,0.00,VWS V14.01,2013-03-16 04:30:00,
2013-03-16 00:36:00,45.7,33.0,29.91,WNW,292,0.0,0.0,61,0.00,,SCT120,0.00,VWS V14.01,2013-03-16 04:36:00,
2013-03-16 00:41:00,45.3,33.5,29.91,WNW,292,2.7,3.1,63,0.00,,BKN100,0.00,VWS V14.01,2013-03-16 04:41:00,
2013-03-16 00:46:00,45.0,33.9,29.91,NNE,22,0.0,0.0,65,0.00,,BKN100,0.00,VWS V14.01,2013-03-16 04:46:00,
2013-03-16 00:51:00,44.8,34.1,29.88,NNE,22,0.0,0.0,66,0.00,,BKN100,0.00,VWS V14.01,2013-03-16 04:51:00,
2013-03-16 00:56:00,44.8,34.5,29.88,NNW,338,2.7,3.6,67,0.00,,BKN100,0.00,VWS V14.01,2013-03-16 04:56:00,
2013-03-16 01:01:00,45.5,35.6,29.88,WNW,292,4.5,5.8,68,0.00,,BKN100,0.00,VWS V14.01,2013-03-16 05:01:00,
2013-03-16 01:06:00,45.7,35.7,29.88,WNW,292,0.0,2.2,68,0.00,,BKN100,0.00,VWS V14.01,2013-03-16 05:06:00,
2013-03-16 01:11:00,47.3,36.5,29.88,WSW,248,2.7,3.6,66,0.00,,BKN100,0.00,VWS V14.01,2013-03-16 05:11:00,
2013-03-16 01:16:00,47.8,36.3,29.88,WSW,248,0.0,0.0,64,0.00,,BKN100,0.00,VWS V14.01,2013-03-16 05:16:00,
2013-03-16 01:21:00,47.5,36.3,29.88,WSW,248,0.0,0.0,65,0.00,,BKN100,0.00,VWS V14.01,2013-03-16 05:21:00,
2013-03-16 01:26:00,47.7,38.4,29.91,WSW,248,3.1,3.6,70,0.00,,BKN100,0.00,VWS V14.01,2013-03-16 05:26:00,
2013-03-16 01:31:00,48.2,39.2,29.91,WSW,248,2.2,2.7,71,0.00,,BKN100,0.00,VWS V14.01,2013-03-16 05:31:00,
2013-03-16 01:36:00,48.4,39.1,29.88,South,180,2.7,2.7,70,0.00,,BKN100,0.00,VWS V14.01,2013-03-16 05:36:00,
2013-03-16 01:42:00,48.6,38.9,29.88,SSW,202,3.1,3.1,69,0.00,,BKN100,0.00,VWS V14.01,2013-03-16 05:42:00,
2013-03-16 01:47:00,48.4,37.9,29.88,SSW,202,0.0,2.2,67,0.00,,BKN100,0.00,VWS V14.01,2013-03-16 05:47:00,
2013-03-16 01:52:00,48.0,38.0,29.88,SSW,202,0.0,2.2,68,0.00,,BKN100,0.00,VWS V14.01,2013-03-16 05:52:00,
2013-03-16 01:57:00,47.3,39.5,29.88,SSW,202,0.0,0.0,74,0.00,,BKN100,0.00,VWS V14.01,2013-03-16 05:57:00,
2013-03-16 02:02:00,47.5,40.6,29.88,SSW,202,2.7,2.7,77,0.00,,OVC090,0.00,VWS V14.01,2013-03-16 06:02:00,
2013-03-16 02:07:00,48.2,41.0,29.88,SSE,158,2.7,3.1,76,0.00,,OVC090,0.00,VWS V14.01,2013-03-16 06:07:00,
2013-03-16 02:12:00,48.2,40.3,29.88,SSE,158,0.0,0.0,74,0.00,,OVC090,0.00,VWS V14.01,2013-03-16 06:12:00,
2013-03-16 02:17:00,48.9,40.7,29.88,SSE,158,2.7,3.1,73,0.00,,OVC090,0.00,VWS V14.01,2013-03-16 06:17:00,
2013-03-16 02:22:00,51.1,39.7,29.88,SSE,158,0.0,2.2,65,0.00,,BKN090,0.00,VWS V14.01,2013-03-16 06:22:00,
2013-03-16 02:27:00,51.8,38.4,29.88,SW,225,3.6,3.6,60,0.00,,BKN090,0.00,VWS V14.01,2013-03-16 06:27:00,
2013-03-16 02:32:00,50.2,38.5,29.88,SW,225,0.0,0.0,64,0.00,,BKN090,0.00,VWS V14.01,2013-03-16 06:32:00,
2013-03-16 02:37:00,50.2,38.1,29.88,SW,225,0.0,0.0,63,0.00,,BKN090,0.00,VWS V14.01,2013-03-16 06:37:00,
2013-03-16 02:42:00,50.2,38.1,29.88,SW,225,2.7,3.6,63,0.00,,SCT090,0.00,VWS V14.01,2013-03-16 06:42:00,
2013-03-16 02:48:00,51.6,36.9,29.88,SSE,158,0.0,2.2,57,0.00,,SCT090,0.00,VWS V14.01,2013-03-16 06:48:00,
2013-03-16 02:53:00,50.5,36.8,29.88,SSE,158,0.0,2.2,59,0.00,,SCT090,0.00,VWS V14.01,2013-03-16 06:53:00,
2013-03-16 02:58:00,49.6,38.0,29.88,SSE,158,0.0,2.2,64,0.00,,SCT090,0.00,VWS V14.01,2013-03-16 06:58:00,
2013-03-16 03:03:00,48.6,38.9,29.88,SSE,158,0.0,0.0,69,0.00,,CLR,0.00,VWS V14.01,2013-03-16 07:03:00,
2013-03-16 03:08:00,48.4,38.3,29.88,SSW,202,0.0,0.0,68,0.00,,CLR,0.00,VWS V14.01,2013-03-16 07:08:00,
2013-03-16 03:13:00,48.2,38.2,29.88,SSW,202,0.0,0.0,68,0.00,,CLR,0.00,VWS V14.01,2013-03-16 07:13:00,
2013-03-16 03:18:00,48.0,38.0,29.88,SSW,202,0.0,0.0,68,0.00,,CLR,0.00,VWS V14.01,2013-03-16 07:18:00,
2013-03-16 03:23:00,47.5,38.6,29.88,SSW,202,0.0,0.0,71,0.00,,CLR,0.00,VWS V14.01,2013-03-16 07:23:00,
2013-03-16 03:28:00,47.1,38.6,29.88,SSW,202,0.0,0.0,72,0.00,,CLR,0.00,VWS V14.01,2013-03-16 07:28:00,
2013-03-16 03:33:00,46.8,38.9,29.88,SSW,202,0.0,0.0,74,0.00,,CLR,0.00,VWS V14.01,2013-03-16 07:33:00,
2013-03-16 03:38:00,46.4,38.9,29.88,SSW,202,2.7,2.7,75,0.00,,CLR,0.00,VWS V14.01,2013-03-16 07:38:00,
2013-03-16 03:43:00,47.1,40.0,29.88,SSW,202,2.2,3.1,76,0.00,,CLR,0.00,VWS V14.01,2013-03-16 07:43:00,
2013-03-16 03:48:00,46.4,39.3,29.88,SSW,202,0.0,2.2,76,0.00,,CLR,0.00,VWS V14.01,2013-03-16 07:48:00,
2013-03-16 03:53:00,46.6,39.4,29.85,SSW,202,0.0,0.0,76,0.00,,CLR,0.00,VWS V14.01,2013-03-16 07:53:00,
2013-03-16 03:58:00,46.9,39.4,29.85,SSW,202,0.0,0.0,75,0.00,,CLR,0.00,VWS V14.01,2013-03-16 07:58:00,
2013-03-16 04:03:00,47.3,38.7,29.85,SSW,202,0.0,0.0,72,0.00,,CLR,0.00,VWS V14.01,2013-03-16 08:03:00,
2013-03-16 04:08:00,46.2,38.8,29.85,NNE,22,2.2,2.7,75,0.00,,CLR,0.00,VWS V14.01,2013-03-16 08:08:00,
2013-03-16 04:13:00,46.0,38.9,29.85,NNW,338,3.1,3.1,76,0.00,,CLR,0.00,VWS V14.01,2013-03-16 08:13:00,
2013-03-16 04:18:00,45.5,39.0,29.85,NNW,338,3.6,3.6,78,0.00,,CLR,0.00,VWS V14.01,2013-03-16 08:18:00,
2013-03-16 04:23:00,47.5,40.3,29.85,SSW,202,4.0,4.0,76,0.00,,CLR,0.00,VWS V14.01,2013-03-16 08:23:00,
2013-03-16 04:28:00,46.6,38.8,29.85,WNW,292,0.0,2.2,74,0.00,,CLR,0.00,VWS V14.01,2013-03-16 08:28:00,
2013-03-16 04:33:00,46.2,39.1,29.85,SSW,202,2.2,2.7,76,0.00,,CLR,0.00,VWS V14.01,2013-03-16 08:33:00,
2013-03-16 04:38:00,45.9,38.7,29.85,SSW,202,2.7,2.7,76,0.00,,CLR,0.00,VWS V14.01,2013-03-16 08:38:00,
2013-03-16 04:43:00,45.5,39.0,29.85,SSW,202,2.7,2.7,78,0.00,,CLR,0.00,VWS V14.01,2013-03-16 08:43:00,
2013-03-16 04:48:00,46.2,39.4,29.85,SSW,202,0.0,0.0,77,0.00,,CLR,0.00,VWS V14.01,2013-03-16 08:48:00,
2013-03-16 04:53:00,45.3,38.9,29.85,SW,225,2.7,2.7,78,0.00,,CLR,0.00,VWS V14.01,2013-03-16 08:53:00,
2013-03-16 04:58:00,44.8,39.0,29.85,SW,225,0.0,0.0,80,0.00,,CLR,0.00,VWS V14.01,2013-03-16 08:58:00,
2013-03-16 05:03:00,44.2,39.1,29.85,SW,225,2.7,2.7,82,0.00,,CLR,0.00,VWS V14.01,2013-03-16 09:03:00,
2013-03-16 05:08:00,43.9,39.4,29.85,SW,225,0.0,0.0,84,0.00,,CLR,0.00,VWS V14.01,2013-03-16 09:08:00,
2013-03-16 05:13:00,44.2,40.0,29.85,SW,225,0.0,2.2,85,0.00,,CLR,0.00,VWS V14.01,2013-03-16 09:13:00,
2013-03-16 05:18:00,44.4,40.2,29.85,SW,225,0.0,2.2,85,0.00,,CLR,0.00,VWS V14.01,2013-03-16 09:18:00,
2013-03-16 05:23:00,44.2,40.0,29.85,SW,225,0.0,0.0,85,0.00,,CLR,0.00,VWS V14.01,2013-03-16 09:23:00,
2013-03-16 05:29:00,44.2,40.3,29.85,SW,225,0.0,0.0,86,0.00,,CLR,0.00,VWS V14.01,2013-03-16 09:29:00,
2013-03-16 05:34:00,45.1,40.9,29.85,SW,225,0.0,0.0,85,0.00,,CLR,0.00,VWS V14.01,2013-03-16 09:34:00,
2013-03-16 05:39:00,45.3,40.8,29.85,SW,225,0.0,0.0,84,0.00,,CLR,0.00,VWS V14.01,2013-03-16 09:39:00,
2013-03-16 05:44:00,45.3,40.8,29.85,SW,225,0.0,0.0,84,0.00,,CLR,0.00,VWS V14.01,2013-03-16 09:44:00,
2013-03-16 05:49:00,44.8,40.5,29.85,WSW,248,0.0,2.2,85,0.00,,CLR,0.00,VWS V14.01,2013-03-16 09:49:00,
2013-03-16 05:54:00,44.6,40.4,29.85,WSW,248,0.0,2.2,85,0.00,,CLR,0.00,VWS V14.01,2013-03-16 09:54:00,
2013-03-16 05:59:00,44.6,40.4,29.85,WSW,248,0.0,0.0,85,0.00,,CLR,0.00,VWS V14.01,2013-03-16 09:59:00,
2013-03-16 06:04:00,45.3,41.1,29.85,WSW,248,0.0,2.2,85,0.00,,CLR,0.00,VWS V14.01,2013-03-16 10:04:00,
2013-03-16 06:09:00,45.5,41.3,29.85,WSW,248,0.0,2.2,85,0.00,,CLR,0.00,VWS V14.01,2013-03-16 10:09:00,
2013-03-16 06:14:00,46.2,41.7,29.85,SSE,158,4.0,4.0,84,0.00,,CLR,0.00,VWS V14.01,2013-03-16 10:14:00,
2013-03-16 06:19:00,45.9,40.7,29.85,SSW,202,0.0,0.0,82,0.00,,CLR,0.00,VWS V14.01,2013-03-16 10:19:00,
2013-03-16 06:24:00,45.7,40.5,29.88,SSW,202,0.0,0.0,82,0.00,,CLR,0.00,VWS V14.01,2013-03-16 10:24:00,
2013-03-16 06:29:00,45.3,40.2,29.88,SSW,202,0.0,0.0,82,0.00,,CLR,0.00,VWS V14.01,2013-03-16 10:29:00,
2013-03-16 06:34:00,45.3,40.2,29.88,SSW,202,0.0,0.0,82,0.00,,CLR,0.00,VWS V14.01,2013-03-16 10:34:00,
2013-03-16 06:39:00,45.1,40.3,29.85,SSW,202,0.0,0.0,83,0.00,,CLR,0.00,VWS V14.01,2013-03-16 10:39:00,
2013-03-16 06:44:00,46.2,41.3,29.85,SSW,202,0.0,2.2,83,0.00,,SCT120,0.00,VWS V14.01,2013-03-16 10:44:00,
2013-03-16 06:49:00,45.9,40.4,29.85,SSW,202,0.0,0.0,81,0.00,,SCT120,0.00,VWS V14.01,2013-03-16 10:49:00,
2013-03-16 06:54:00,46.4,40.9,29.85,SSW,202,0.0,0.0,81,0.00,,SCT120,0.00,VWS V14.01,2013-03-16 10:54:00,
2013-03-16 06:59:00,46.4,40.6,29.85,SSW,202,0.0,0.0,80,0.00,,SCT120,0.00,VWS V14.01,2013-03-16 10:59:00,
2013-03-16 07:04:00,48.0,41.5,29.85,SSW,202,0.0,0.0,78,0.00,,SCT120,0.00,VWS V14.01,2013-03-16 11:04:00,
2013-03-16 07:09:00,47.5,40.0,29.88,SSW,202,0.0,0.0,75,0.00,,SCT120,0.00,VWS V14.01,2013-03-16 11:09:00,
2013-03-16 07:14:00,46.8,39.6,29.88,SSW,202,0.0,0.0,76,0.00,,SCT120,0.00,VWS V14.01,2013-03-16 11:14:00,
2013-03-16 07:19:00,46.4,39.3,29.88,SSW,202,2.2,2.2,76,0.00,,SCT120,0.00,VWS V14.01,2013-03-16 11:19:00,
2013-03-16 07:24:00,49.5,41.2,29.88,SSW,202,0.0,0.0,73,0.00,,CLR,0.00,VWS V14.01,2013-03-16 11:24:00,
2013-03-16 07:29:00,48.7,39.4,29.88,SSW,202,0.0,0.0,70,0.00,,CLR,0.00,VWS V14.01,2013-03-16 11:29:00,
2013-03-16 07:34:00,48.4,39.1,29.88,SSW,202,0.0,0.0,70,0.00,,CLR,0.00,VWS V14.01,2013-03-16 11:34:00,
2013-03-16 07:39:00,46.4,37.9,29.88,SSW,202,0.0,0.0,72,0.00,,CLR,0.00,VWS V14.01,2013-03-16 11:39:00,
2013-03-16 07:44:00,45.3,37.5,29.88,SSW,202,0.0,0.0,74,0.00,,CLR,0.00,VWS V14.01,2013-03-16 11:44:00,
2013-03-16 07:49:00,44.6,37.5,29.88,SSW,202,0.0,0.0,76,0.00,,CLR,0.00,VWS V14.01,2013-03-16 11:49:00,
2013-03-16 07:54:00,44.2,37.8,29.88,SSW,202,0.0,0.0,78,0.00,,CLR,0.00,VWS V14.01,2013-03-16 11:54:00,
2013-03-16 07:59:00,44.2,38.5,29.88,SSW,202,0.0,0.0,80,0.00,,CLR,0.00,VWS V14.01,2013-03-16 11:59:00,
2013-03-16 08:05:00,44.1,38.9,29.88,SSW,202,0.0,0.0,82,0.00,,CLR,0.00,VWS V14.01,2013-03-16 12:05:00,
2013-03-16 08:10:00,44.1,39.2,29.88,SSW,202,0.0,0.0,83,0.00,,CLR,0.00,VWS V14.01,2013-03-16 12:10:00,
2013-03-16 08:15:00,44.1,39.2,29.88,SSW,202,0.0,0.0,83,0.00,,CLR,0.00,VWS V14.01,2013-03-16 12:15:00,
2013-03-16 08:20:00,45.3,40.8,29.88,SSW,202,0.0,2.2,84,0.00,,CLR,0.00,VWS V14.01,2013-03-16 12:20:00,
2013-03-16 08:25:00,45.5,40.7,29.88,SSW,202,0.0,0.0,83,0.00,,CLR,0.00,VWS V14.01,2013-03-16 12:25:00,
2013-03-16 08:30:00,45.3,40.5,29.88,South,180,0.0,0.0,83,0.00,,CLR,0.00,VWS V14.01,2013-03-16 12:30:00,
2013-03-16 08:35:00,45.0,40.1,29.85,SSW,202,0.0,2.2,83,0.00,,CLR,0.00,VWS V14.01,2013-03-16 12:35:00,
2013-03-16 08:40:00,45.0,40.1,29.85,SSW,202,0.0,0.0,83,0.00,,CLR,0.00,VWS V14.01,2013-03-16 12:40:00,
2013-03-16 08:45:00,45.3,40.8,29.85,SSW,202,0.0,2.2,84,0.00,,CLR,0.00,VWS V14.01,2013-03-16 12:45:00,
2013-03-16 08:50:00,46.2,41.7,29.88,SSW,202,0.0,2.7,84,0.00,,CLR,0.00,VWS V14.01,2013-03-16 12:50:00,
2013-03-16 08:55:00,47.1,42.2,29.88,SSW,202,2.2,2.7,83,0.00,,CLR,0.00,VWS V14.01,2013-03-16 12:55:00,
2013-03-16 09:00:00,48.2,43.0,29.88,SSW,202,2.7,2.7,82,0.00,,CLR,0.00,VWS V14.01,2013-03-16 13:00:00,
2013-03-16 09:05:00,49.3,43.0,29.88,SSW,202,0.0,0.0,79,0.00,,CLR,0.00,VWS V14.01,2013-03-16 13:05:00,
2013-03-16 09:10:00,50.0,43.4,29.88,SSW,202,0.0,0.0,78,0.00,,CLR,0.00,VWS V14.01,2013-03-16 13:10:00,
2013-03-16 09:15:00,50.5,42.6,29.88,SSW,202,0.0,2.2,74,0.00,,CLR,0.00,VWS V14.01,2013-03-16 13:15:00,
2013-03-16 09:20:00,51.1,42.4,29.88,SE,135,3.1,3.1,72,0.00,,CLR,0.00,VWS V14.01,2013-03-16 13:20:00,
2013-03-16 09:25:00,52.7,42.1,29.88,SE,135,2.2,2.2,67,0.00,,CLR,0.00,VWS V14.01,2013-03-16 13:25:00,
2013-03-16 09:30:00,53.2,41.8,29.88,SE,135,0.0,0.0,65,0.00,,CLR,0.00,VWS V14.01,2013-03-16 13:30:00,
2013-03-16 09:35:00,54.3,42.0,29.88,SE,135,0.0,0.0,63,0.00,,CLR,0.00,VWS V14.01,2013-03-16 13:35:00,
2013-03-16 09:40:00,55.2,42.0,29.88,SE,135,0.0,2.2,61,0.00,,CLR,0.00,VWS V14.01,2013-03-16 13:40:00,
2013-03-16 09:45:00,56.3,40.8,29.88,SE,135,0.0,0.0,56,0.00,,CLR,0.00,VWS V14.01,2013-03-16 13:45:00,
2013-03-16 09:50:00,57.4,40.4,29.88,ENE,68,0.0,2.2,53,0.00,,CLR,0.00,VWS V14.01,2013-03-16 13:50:00,
2013-03-16 09:55:00,58.6,40.6,29.88,South,180,4.0,4.0,51,0.00,,CLR,0.00,VWS V14.01,2013-03-16 13:55:00,
2013-03-16 10:00:00,59.4,40.2,29.88,SE,135,3.1,3.1,49,0.00,,CLR,0.00,VWS V14.01,2013-03-16 14:00:00,
2013-03-16 10:05:00,59.9,40.2,29.88,SSE,158,2.7,3.1,48,0.00,,CLR,0.00,VWS V14.01,2013-03-16 14:05:00,
2013-03-16 10:10:00,60.6,39.8,29.88,SSE,158,3.1,3.6,46,0.00,,CLR,0.00,VWS V14.01,2013-03-16 14:10:00,
2013-03-16 10:16:00,61.7,39.0,29.88,SSE,158,2.2,3.1,43,0.00,,CLR,0.00,VWS V14.01,2013-03-16 14:16:00,
2013-03-16 10:21:00,62.8,39.4,29.85,SSE,158,2.7,2.7,42,0.00,,CLR,0.00,VWS V14.01,2013-03-16 14:21:00,
2013-03-16 10:26:00,63.3,38.6,29.85,SSW,202,3.6,3.6,40,0.00,,CLR,0.00,VWS V14.01,2013-03-16 14:26:00,
2013-03-16 10:31:00,63.7,37.0,29.85,South,180,2.7,4.9,37,0.00,,CLR,0.00,VWS V14.01,2013-03-16 14:31:00,
2013-03-16 10:36:00,64.4,37.6,29.85,South,180,3.1,5.4,37,0.00,,CLR,0.00,VWS V14.01,2013-03-16 14:36:00,
2013-03-16 10:41:00,65.1,36.8,29.85,SSW,202,5.8,7.6,35,0.00,,CLR,0.00,VWS V14.01,2013-03-16 14:41:00,
2013-03-16 10:46:00,65.8,37.5,29.85,SSW,202,4.0,4.0,35,0.00,,CLR,0.00,VWS V14.01,2013-03-16 14:46:00,
2013-03-16 10:51:00,66.4,37.9,29.85,SSE,158,4.9,4.9,35,0.00,,CLR,0.00,VWS V14.01,2013-03-16 14:51:00,
2013-03-16 10:56:00,66.6,37.3,29.85,WSW,248,4.0,4.0,34,0.00,,CLR,0.00,VWS V14.01,2013-03-16 14:56:00,
2013-03-16 11:01:00,67.3,38.0,29.85,SSE,158,4.0,4.9,34,0.00,,CLR,0.00,VWS V14.01,2013-03-16 15:01:00,
2013-03-16 11:06:00,67.5,38.1,29.85,SSE,158,3.6,3.6,34,0.00,,CLR,0.00,VWS V14.01,2013-03-16 15:06:00,
2013-03-16 11:11:00,67.8,38.5,29.85,SSE,158,4.0,4.9,34,0.00,,CLR,0.00,VWS V14.01,2013-03-16 15:11:00,
2013-03-16 11:16:00,69.4,38.3,29.85,WNW,292,3.6,3.6,32,0.00,,CLR,0.00,VWS V14.01,2013-03-16 15:16:00,
2013-03-16 11:21:00,70.5,34.0,29.82,SW,225,4.9,6.3,26,0.00,,CLR,0.00,VWS V14.01,2013-03-16 15:21:00,
2013-03-16 11:26:00,70.3,32.9,29.82,SSW,202,3.1,8.1,25,0.00,,CLR,0.00,VWS V14.01,2013-03-16 15:26:00,
2013-03-16 11:31:00,71.1,33.5,29.82,SW,225,5.4,6.7,25,0.00,,CLR,0.00,VWS V14.01,2013-03-16 15:31:00,
2013-03-16 11:36:00,71.6,31.9,29.82,WSW,248,6.3,6.3,23,0.00,,CLR,0.00,VWS V14.01,2013-03-16 15:36:00,
2013-03-16 11:41:00,72.5,32.6,29.82,WSW,248,5.4,5.4,23,0.00,,CLR,0.00,VWS V14.01,2013-03-16 15:41:00,
2013-03-16 11:47:00,72.5,32.6,29.82,WSW,248,5.4,5.8,23,0.00,,CLR,0.00,VWS V14.01,2013-03-16 15:47:00,
2013-03-16 11:52:00,72.9,32.9,29.82,WSW,248,4.0,7.2,23,0.00,,CLR,0.00,VWS V14.01,2013-03-16 15:52:00,
2013-03-16 11:57:00,73.2,33.2,29.82,WSW,248,3.6,8.3,23,0.00,,CLR,0.00,VWS V14.01,2013-03-16 15:57:00,
2013-03-16 12:02:00,73.9,33.8,29.82,WSW,248,5.4,5.4,23,0.00,,CLR,0.00,VWS V14.01,2013-03-16 16:02:00,
2013-03-16 12:07:00,73.6,32.4,29.82,SSW,202,3.1,8.1,22,0.00,,CLR,0.00,VWS V14.01,2013-03-16 16:07:00,
2013-03-16 12:12:00,74.5,33.2,29.82,WSW,248,3.1,4.0,22,0.00,,CLR,0.00,VWS V14.01,2013-03-16 16:12:00,
2013-03-16 12:17:00,74.1,32.9,29.82,WSW,248,5.8,5.8,22,0.00,,CLR,0.00,VWS V14.01,2013-03-16 16:17:00,
2013-03-16 12:22:00,73.8,32.6,29.82,WSW,248,8.1,8.1,22,0.00,,CLR,0.00,VWS V14.01,2013-03-16 16:22:00,
2013-03-16 12:27:00,74.7,33.3,29.82,WSW,248,6.3,6.3,22,0.00,,CLR,0.00,VWS V14.01,2013-03-16 16:27:00,
2013-03-16 12:32:00,74.7,33.3,29.82,WSW,248,7.6,7.6,22,0.00,,CLR,0.00,VWS V14.01,2013-03-16 16:32:00,
2013-03-16 12:37:00,74.7,33.3,29.79,WSW,248,5.8,5.8,22,0.00,,CLR,0.00,VWS V14.01,2013-03-16 16:37:00,
2013-03-16 12:42:00,75.7,34.2,29.79,WSW,248,6.3,6.3,22,0.00,,CLR,0.00,VWS V14.01,2013-03-16 16:42:00,
2013-03-16 12:47:00,75.4,33.9,29.79,SW,225,5.4,6.3,22,0.00,,CLR,0.00,VWS V14.01,2013-03-16 16:47:00,
2013-03-16 12:52:00,76.1,33.4,29.79,WSW,248,4.0,4.0,21,0.00,,CLR,0.00,VWS V14.01,2013-03-16 16:52:00,
2013-03-16 12:57:00,75.7,33.1,29.79,WNW,292,7.6,8.1,21,0.00,,CLR,0.00,VWS V14.01,2013-03-16 16:57:00,
2013-03-16 13:02:00,77.5,34.6,29.79,WSW,248,7.6,7.6,21,0.00,,CLR,0.00,VWS V14.01,2013-03-16 17:02:00,
2013-03-16 13:08:00,76.5,33.7,29.79,WSW,248,4.9,5.4,21,0.00,,CLR,0.00,VWS V14.01,2013-03-16 17:08:00,
2013-03-16 13:13:00,77.5,34.6,29.79,WSW,248,9.6,9.6,21,0.00,,CLR,0.00,VWS V14.01,2013-03-16 17:13:00,
2013-03-16 13:18:00,75.9,33.2,29.79,WSW,248,7.6,8.1,21,0.00,,CLR,0.00,VWS V14.01,2013-03-16 17:18:00,
2013-03-16 13:23:00,76.3,33.5,29.79,SW,225,6.3,6.3,21,0.00,,CLR,0.00,VWS V14.01,2013-03-16 17:23:00,
2013-03-16 13:28:00,77.4,33.2,29.79,WSW,248,8.3,8.3,20,0.00,,CLR,0.00,VWS V14.01,2013-03-16 17:28:00,
2013-03-16 13:33:00,78.1,35.0,29.79,SW,225,5.4,5.4,21,0.00,,CLR,0.00,VWS V14.01,2013-03-16 17:33:00,
2013-03-16 13:38:00,77.4,33.2,29.79,West,270,4.5,5.8,20,0.00,,CLR,0.00,VWS V14.01,2013-03-16 17:38:00,
2013-03-16 13:43:00,77.7,34.7,29.79,SSW,202,6.3,6.3,21,0.00,,CLR,0.00,VWS V14.01,2013-03-16 17:43:00,
2013-03-16 13:48:00,77.4,33.2,29.79,SW,225,8.7,8.7,20,0.00,,CLR,0.00,VWS V14.01,2013-03-16 17:48:00,
2013-03-16 13:53:00,77.4,33.2,29.79,SW,225,7.2,8.3,20,0.00,,CLR,0.00,VWS V14.01,2013-03-16 17:53:00,
2013-03-16 14:07:00,76.5,33.7,29.79,SSW,202,4.9,4.9,21,0.00,,,0.00,VWS V14.01,2013-03-16 18:07:00,
2013-03-16 14:13:00,75.9,33.2,29.79,WSW,248,5.4,6.7,21,0.00,,,0.00,VWS V14.01,2013-03-16 18:13:00,
2013-03-16 14:18:00,76.6,33.8,29.79,SW,225,4.0,4.0,21,0.00,,,0.00,VWS V14.01,2013-03-16 18:18:00,
2013-03-16 14:23:00,76.8,34.0,29.76,SSW,202,4.0,4.0,21,0.00,,SCT120,0.00,VWS V14.01,2013-03-16 18:23:00,
2013-03-16 14:28:00,77.0,32.9,29.76,WNW,292,8.7,8.7,20,0.00,,SCT120,0.00,VWS V14.01,2013-03-16 18:28:00,
2013-03-16 14:33:00,76.1,33.4,29.76,WSW,248,4.0,5.4,21,0.00,,SCT120,0.00,VWS V14.01,2013-03-16 18:33:00,
2013-03-16 14:39:00,77.0,32.9,29.76,WSW,248,4.9,5.4,20,0.00,,SCT120,0.00,VWS V14.01,2013-03-16 18:39:00,
2013-03-16 14:44:00,77.0,32.9,29.76,WSW,248,2.7,4.0,20,0.00,,SCT120,0.00,VWS V14.01,2013-03-16 18:44:00,
2013-03-16 14:49:00,77.5,33.3,29.76,WSW,248,6.3,6.3,20,0.00,,SCT120,0.00,VWS V14.01,2013-03-16 18:49:00,
2013-03-16 14:54:00,78.8,34.4,29.76,SSW,202,4.9,6.3,20,0.00,,SCT120,0.00,VWS V14.01,2013-03-16 18:54:00,
2013-03-16 14:59:00,77.2,33.0,29.76,WSW,248,6.3,6.3,20,0.00,,SCT120,0.00,VWS V14.01,2013-03-16 18:59:00,
2013-03-16 15:04:00,77.7,33.5,29.76,WSW,248,3.1,4.0,20,0.00,,SCT090,0.00,VWS V14.01,2013-03-16 19:04:00,
2013-03-16 15:09:00,78.1,33.8,29.76,WSW,248,2.2,3.6,20,0.00,,SCT090,0.00,VWS V14.01,2013-03-16 19:09:00,
2013-03-16 15:14:00,79.3,34.8,29.76,WSW,248,8.1,8.1,20,0.00,,SCT090,0.00,VWS V14.01,2013-03-16 19:14:00,
2013-03-16 15:19:00,78.8,30.4,29.76,WSW,248,5.8,5.8,17,0.00,,SCT090,0.00,VWS V14.01,2013-03-16 19:19:00,
2013-03-16 15:24:00,79.7,35.1,29.76,WNW,292,2.7,5.4,20,0.00,,SCT090,0.00,VWS V14.01,2013-03-16 19:24:00,
2013-03-16 15:30:00,78.8,30.4,29.76,SW,225,5.4,5.4,17,0.00,,SCT090,0.00,VWS V14.01,2013-03-16 19:30:00,
2013-03-16 15:35:00,79.2,30.6,29.74,SW,225,5.4,8.7,17,0.00,,SCT090,0.00,VWS V14.01,2013-03-16 19:35:00,
2013-03-16 15:40:00,81.0,32.1,29.74,SW,225,2.7,5.4,17,0.00,,SCT090,0.00,VWS V14.01,2013-03-16 19:40:00,
2013-03-16 15:45:00,81.7,32.7,29.74,West,270,5.8,5.8,17,0.00,,CLR,0.00,VWS V14.01,2013-03-16 19:45:00,
2013-03-16 15:50:00,80.2,31.5,29.76,WSW,248,9.6,9.6,17,0.00,,CLR,0.00,VWS V14.01,2013-03-16 19:50:00,
2013-03-16 15:55:00,79.9,31.2,29.76,WSW,248,5.4,5.4,17,0.00,,CLR,0.00,VWS V14.01,2013-03-16 19:55:00,
2013-03-16 16:00:00,79.9,31.2,29.76,WSW,248,3.6,4.0,17,0.00,,CLR,0.00,VWS V14.01,2013-03-16 20:00:00,
2013-03-16 16:05:00,80.1,31.4,29.74,WSW,248,3.1,5.4,17,0.00,,CLR,0.00,VWS V14.01,2013-03-16 20:05:00,
2013-03-16 16:10:00,79.7,31.1,29.74,West,270,5.4,6.7,17,0.00,,CLR,0.00,VWS V14.01,2013-03-16 20:10:00,
2013-03-16 16:15:00,79.9,31.2,29.74,WSW,248,3.6,4.0,17,0.00,,CLR,0.00,VWS V14.01,2013-03-16 20:15:00,
2013-03-16 16:20:00,79.2,30.6,29.74,SW,225,5.4,8.1,17,0.00,,CLR,0.00,VWS V14.01,2013-03-16 20:20:00,
2013-03-16 16:25:00,80.2,31.5,29.74,SW,225,8.3,8.3,17,0.00,,CLR,0.00,VWS V14.01,2013-03-16 20:25:00,
2013-03-16 16:30:00,80.1,31.4,29.74,SSW,202,7.6,7.6,17,0.00,,CLR,0.00,VWS V14.01,2013-03-16 20:30:00,
2013-03-16 16:35:00,80.6,31.8,29.74,WSW,248,6.3,10.5,17,0.00,,CLR,0.00,VWS V14.01,2013-03-16 20:35:00,
2013-03-16 16:40:00,80.8,32.0,29.74,WSW,248,5.8,7.2,17,0.00,,SCT095,0.00,VWS V14.01,2013-03-16 20:40:00,
2013-03-16 16:45:00,81.0,32.1,29.74,WNW,292,4.5,4.9,17,0.00,,SCT095,0.00,VWS V14.01,2013-03-16 20:45:00,
2013-03-16 16:50:00,80.8,32.0,29.74,West,270,4.0,6.3,17,0.00,,SCT095,0.00,VWS V14.01,2013-03-16 20:50:00,
2013-03-16 16:56:00,80.6,31.8,29.74,West,270,6.7,8.3,17,0.00,,SCT095,0.00,VWS V14.01,2013-03-16 20:56:00,
2013-03-16 17:01:00,80.1,31.4,29.74,WNW,292,7.6,7.6,17,0.00,,SCT095,0.00,VWS V14.01,2013-03-16 21:01:00,
2013-03-16 17:06:00,80.4,31.7,29.74,WSW,248,3.6,7.2,17,0.00,,SCT120,0.00,VWS V14.01,2013-03-16 21:06:00,
2013-03-16 17:11:00,80.4,31.7,29.74,WNW,292,4.9,4.9,17,0.00,,SCT120,0.00,VWS V14.01,2013-03-16 21:11:00,
2013-03-16 17:16:00,80.2,31.5,29.74,WSW,248,2.2,2.2,17,0.00,,SCT120,0.00,VWS V14.01,2013-03-16 21:16:00,
2013-03-16 17:21:00,79.9,31.2,29.74,WNW,292,4.9,4.9,17,0.00,,SCT095,0.00,VWS V14.01,2013-03-16 21:21:00,
2013-03-16 17:26:00,79.9,31.2,29.74,WSW,248,5.4,5.4,17,0.00,,SCT095,0.00,VWS V14.01,2013-03-16 21:26:00,
2013-03-16 17:31:00,80.1,28.3,29.74,WNW,292,7.2,8.1,15,0.00,,SCT095,0.00,VWS V14.01,2013-03-16 21:31:00,
2013-03-16 17:36:00,79.9,28.1,29.76,West,270,7.2,7.2,15,0.00,,SCT095,0.00,VWS V14.01,2013-03-16 21:36:00,
2013-03-16 17:41:00,79.7,28.0,29.76,WNW,292,8.7,8.7,15,0.00,,SCT095,0.00,VWS V14.01,2013-03-16 21:41:00,
2013-03-16 17:46:00,79.2,27.6,29.76,West,270,6.3,8.7,15,0.00,,SCT095,0.00,VWS V14.01,2013-03-16 21:46:00,
2013-03-16 17:51:00,78.8,27.3,29.74,West,270,8.7,8.7,15,0.00,,SCT095,0.00,VWS V14.01,2013-03-16 21:51:00,
2013-03-16 17:56:00,78.8,27.3,29.74,West,270,8.3,8.3,15,0.00,,SCT095,0.00,VWS V14.01,2013-03-16 21:56:00,
2013-03-16 18:01:00,78.4,27.0,29.74,West,270,10.1,10.1,15,0.00,,CLR,0.00,VWS V14.01,2013-03-16 22:01:00,
2013-03-16 18:06:00,78.1,26.7,29.74,WNW,292,5.4,5.4,15,0.00,,CLR,0.00,VWS V14.01,2013-03-16 22:06:00,
2013-03-16 18:11:00,77.9,26.6,29.74,WNW,292,5.4,8.3,15,0.00,,CLR,0.00,VWS V14.01,2013-03-16 22:11:00,
2013-03-16 18:16:00,77.9,31.0,29.74,WNW,292,6.3,8.7,18,0.00,,CLR,0.00,VWS V14.01,2013-03-16 22:16:00,
2013-03-16 18:21:00,77.9,31.0,29.74,West,270,4.9,5.4,18,0.00,,CLR,0.00,VWS V14.01,2013-03-16 22:21:00,
2013-03-16 18:27:00,77.9,31.0,29.74,WNW,292,4.9,8.3,18,0.00,,CLR,0.00,VWS V14.01,2013-03-16 22:27:00,
2013-03-16 18:32:00,77.4,30.6,29.74,West,270,4.5,6.3,18,0.00,,CLR,0.00,VWS V14.01,2013-03-16 22:32:00,
2013-03-16 18:37:00,77.0,30.3,29.76,WNW,292,8.3,8.3,18,0.00,,CLR,0.00,VWS V14.01,2013-03-16 22:37:00,
2013-03-16 18:42:00,77.0,30.3,29.76,WNW,292,8.3,8.3,18,0.00,,SCT110,0.00,VWS V14.01,2013-03-16 22:42:00,
2013-03-16 18:47:00,76.5,29.9,29.76,WNW,292,11.0,11.0,18,0.00,,SCT110,0.00,VWS V14.01,2013-03-16 22:47:00,
2013-03-16 18:52:00,76.1,29.6,29.76,NW,315,4.0,4.0,18,0.00,,SCT110,0.00,VWS V14.01,2013-03-16 22:52:00,
2013-03-16 18:57:00,75.9,29.4,29.76,WNW,292,2.7,8.1,18,0.00,,SCT110,0.00,VWS V14.01,2013-03-16 22:57:00,
2013-03-16 19:02:00,75.9,29.4,29.76,WNW,292,4.9,4.9,18,0.00,,SCT110,0.00,VWS V14.01,2013-03-16 23:02:00,
2013-03-16 19:07:00,75.6,29.1,29.76,WNW,292,3.6,5.8,18,0.00,,SCT110,0.00,VWS V14.01,2013-03-16 23:07:00,
2013-03-16 19:12:00,75.4,29.0,29.76,WNW,292,3.1,4.9,18,0.00,,SCT110,0.00,VWS V14.01,2013-03-16 23:12:00,
2013-03-16 19:17:00,75.0,32.5,29.76,WSW,248,4.9,4.9,21,0.00,,SCT110,0.00,VWS V14.01,2013-03-16 23:17:00,
2013-03-16 19:22:00,75.0,32.5,29.79,WNW,292,6.3,8.1,21,0.00,,SCT120,0.00,VWS V14.01,2013-03-16 23:22:00,
2013-03-16 19:27:00,75.0,32.5,29.79,WNW,292,4.0,5.8,21,0.00,,SCT120,0.00,VWS V14.01,2013-03-16 23:27:00,
2013-03-16 19:32:00,74.8,32.3,29.79,WSW,248,9.6,9.6,21,0.00,,SCT120,0.00,VWS V14.01,2013-03-16 23:32:00,
2013-03-16 19:37:00,74.7,32.2,29.79,NNE,22,3.6,5.4,21,0.00,,SCT120,0.00,VWS V14.01,2013-03-16 23:37:00,
2013-03-16 19:42:00,74.5,32.0,29.79,West,270,5.4,7.2,21,0.00,,SCT120,0.00,VWS V14.01,2013-03-16 23:42:00,
2013-03-16 19:47:00,74.3,31.9,29.79,WNW,292,5.4,8.3,21,0.00,,SCT120,0.00,VWS V14.01,2013-03-16 23:47:00,
2013-03-16 19:52:00,74.3,31.9,29.82,West,270,5.4,7.6,21,0.00,,SCT120,0.00,VWS V14.01,2013-03-16 23:52:00,
2013-03-16 19:57:00,74.1,31.7,29.82,WNW,292,6.3,6.7,21,0.00,,SCT120,0.00,VWS V14.01,2013-03-16 23:57:00,
2013-03-16 20:03:00,73.6,31.3,29.82,WNW,292,4.9,4.9,21,0.00,,SCT120,0.00,VWS V14.01,2013-03-17 00:03:00,
2013-03-16 20:08:00,73.6,31.3,29.82,West,270,4.5,5.4,21,0.00,,SCT120,0.00,VWS V14.01,2013-03-17 00:08:00,
2013-03-16 20:13:00,73.0,32.0,29.82,WNW,292,4.0,4.0,22,0.00,,SCT120,0.00,VWS V14.01,2013-03-17 00:13:00,
2013-03-16 20:18:00,72.9,31.8,29.82,West,270,0.0,3.6,22,0.00,,SCT120,0.00,VWS V14.01,2013-03-17 00:18:00,
2013-03-16 20:23:00,72.5,31.5,29.82,West,270,7.6,7.6,22,0.00,,CLR,0.00,VWS V14.01,2013-03-17 00:23:00,
2013-03-16 20:28:00,72.5,31.5,29.82,West,270,3.6,7.6,22,0.00,,CLR,0.00,VWS V14.01,2013-03-17 00:28:00,
2013-03-16 20:33:00,72.7,31.7,29.82,WNW,292,3.6,4.9,22,0.00,,CLR,0.00,VWS V14.01,2013-03-17 00:33:00,
2013-03-16 20:38:00,72.1,32.3,29.85,West,270,4.9,5.4,23,0.00,,CLR,0.00,VWS V14.01,2013-03-17 00:38:00,
2013-03-16 20:43:00,72.3,32.5,29.85,WNW,292,2.7,6.3,23,0.00,,CLR,0.00,VWS V14.01,2013-03-17 00:43:00,
2013-03-16 20:48:00,71.8,32.0,29.85,WNW,292,3.6,3.6,23,0.00,,CLR,0.00,VWS V14.01,2013-03-17 00:48:00,
2013-03-16 20:53:00,71.8,33.1,29.85,NNW,338,3.1,5.8,24,0.00,,CLR,0.00,VWS V14.01,2013-03-17 00:53:00,
2013-03-16 20:58:00,71.4,32.8,29.85,WNW,292,4.9,5.4,24,0.00,,CLR,0.00,VWS V14.01,2013-03-17 00:58:00,
2013-03-16 21:03:00,71.4,33.8,29.85,WNW,292,3.1,5.4,25,0.00,,CLR,0.00,VWS V14.01,2013-03-17 01:03:00,
2013-03-16 21:08:00,71.2,33.6,29.88,WNW,292,4.0,9.6,25,0.00,,CLR,0.00,VWS V14.01,2013-03-17 01:08:00,
2013-03-16 21:13:00,70.9,33.3,29.88,SW,225,2.7,3.1,25,0.00,,CLR,0.00,VWS V14.01,2013-03-17 01:13:00,
2013-03-16 21:18:00,70.3,33.9,29.88,NNW,338,3.1,4.9,26,0.00,,CLR,0.00,VWS V14.01,2013-03-17 01:18:00,
2013-03-16 21:23:00,70.7,34.2,29.85,WNW,292,3.6,4.9,26,0.00,,CLR,0.00,VWS V14.01,2013-03-17 01:23:00,
2013-03-16 21:28:00,70.3,33.9,29.85,WNW,292,2.7,2.7,26,0.00,,CLR,0.00,VWS V14.01,2013-03-17 01:28:00,
2013-03-16 21:33:00,70.2,34.7,29.85,WNW,292,2.7,2.7,27,0.00,,CLR,0.00,VWS V14.01,2013-03-17 01:33:00,
2013-03-16 21:38:00,69.6,35.1,29.85,WNW,292,2.7,3.6,28,0.00,,CLR,0.00,VWS V14.01,2013-03-17 01:38:00,
2013-03-16 21:43:00,69.4,35.0,29.85,WNW,292,3.6,3.6,28,0.00,,CLR,0.00,VWS V14.01,2013-03-17 01:43:00,
2013-03-16 21:48:00,69.3,34.8,29.85,WNW,292,2.2,2.7,28,0.00,,CLR,0.00,VWS V14.01,2013-03-17 01:48:00,
2013-03-16 21:53:00,69.3,34.8,29.85,WNW,292,3.1,4.0,28,0.00,,CLR,0.00,VWS V14.01,2013-03-17 01:53:00,
2013-03-16 21:58:00,69.1,35.5,29.85,WNW,292,3.1,4.0,29,0.00,,CLR,0.00,VWS V14.01,2013-03-17 01:58:00,
2013-03-16 22:03:00,69.6,35.1,29.85,WSW,248,2.7,4.0,28,0.00,,CLR,0.00,VWS V14.01,2013-03-17 02:03:00,
2013-03-16 22:09:00,69.6,36.0,29.88,WNW,292,4.5,5.4,29,0.00,,CLR,0.00,VWS V14.01,2013-03-17 02:09:00,
2013-03-16 22:14:00,69.4,35.8,29.88,West,270,4.0,4.9,29,0.00,,CLR,0.00,VWS V14.01,2013-03-17 02:14:00,
2013-03-16 22:19:00,68.9,35.4,29.88,West,270,4.9,4.9,29,0.00,,CLR,0.00,VWS V14.01,2013-03-17 02:19:00,
2013-03-16 22:24:00,68.7,36.1,29.88,West,270,4.0,4.9,30,0.00,,CLR,0.00,VWS V14.01,2013-03-17 02:24:00,
2013-03-16 22:29:00,68.5,36.7,29.88,West,270,3.1,4.5,31,0.00,,CLR,0.00,VWS V14.01,2013-03-17 02:29:00,
2013-03-16 22:34:00,68.7,36.9,29.88,West,270,3.6,3.6,31,0.00,,CLR,0.00,VWS V14.01,2013-03-17 02:34:00,
2013-03-16 22:39:00,68.4,37.4,29.88,West,270,4.0,5.8,32,0.00,,CLR,0.00,VWS V14.01,2013-03-17 02:39:00,
2013-03-16 22:44:00,68.4,37.4,29.88,West,270,3.6,3.6,32,0.00,,SCT090,0.00,VWS V14.01,2013-03-17 02:44:00,
2013-03-16 22:49:00,68.4,37.4,29.88,West,270,4.0,4.9,32,0.00,,SCT090,0.00,VWS V14.01,2013-03-17 02:49:00,
2013-03-16 22:54:00,68.0,37.1,29.88,West,270,3.6,3.6,32,0.00,,SCT090,0.00,VWS V14.01,2013-03-17 02:54:00,
2013-03-16 22:59:00,67.6,37.5,29.88,West,270,2.7,2.7,33,0.00,,SCT090,0.00,VWS V14.01,2013-03-17 02:59:00,
2013-03-16 23:04:00,67.3,37.2,29.88,West,270,3.6,3.6,33,0.00,,CLR,0.00,VWS V14.01,2013-03-17 03:04:00,
2013-03-16 23:09:00,67.5,37.4,29.88,West,270,0.0,3.6,33,0.00,,CLR,0.00,VWS V14.01,2013-03-17 03:09:00,
2013-03-16 23:14:00,67.3,37.2,29.88,West,270,0.0,0.0,33,0.00,,CLR,0.00,VWS V14.01,2013-03-17 03:14:00,
2013-03-16 23:19:00,66.6,36.6,29.88,West,270,0.0,0.0,33,0.00,,CLR,0.00,VWS V14.01,2013-03-17 03:19:00,
2013-03-16 23:24:00,66.2,37.0,29.88,West,270,2.2,2.2,34,0.00,,CLR,0.00,VWS V14.01,2013-03-17 03:24:00,
2013-03-16 23:29:00,66.2,37.0,29.88,West,270,2.7,2.7,34,0.00,,CLR,0.00,VWS V14.01,2013-03-17 03:29:00,
2013-03-16 23:34:00,65.7,37.3,29.88,West,270,0.0,0.0,35,0.00,,CLR,0.00,VWS V14.01,2013-03-17 03:34:00,
2013-03-16 23:39:00,65.7,37.3,29.88,West,270,2.7,2.7,35,0.00,,CLR,0.00,VWS V14.01,2013-03-17 03:39:00,
2013-03-16 23:44:00,66.0,37.6,29.88,SSE,158,3.1,3.1,35,0.00,,SCT095,0.00,VWS V14.01,2013-03-17 03:44:00,
2013-03-16 23:49:00,65.7,37.3,29.88,SSE,158,0.0,0.0,35,0.00,,SCT095,0.00,VWS V14.01,2013-03-17 03:49:00,
2013-03-16 23:54:00,64.9,36.7,29.88,SSE,158,0.0,0.0,35,0.00,,SCT095,0.00,VWS V14.01,2013-03-17 03:54:00,
2013-03-16 23:59:00,63.7,37.0,29.88,SSE,158,0.0,0.0,37,0.00,,SCT095,0.00,VWS V14.01,2013-03-17 03:59:00,